Time;durP1;ratioP1;P1;durP2;ratioP2;P2;SDS_P1;SDS_P2;PMS_P1;PMS_P2;Temp;Humidity;BMP_temperature;BMP_pressure;BME280_temperature;BME280_humidity;BME280_pressure;Samples;Min_cycle;Max_cycle;Signal;HPM_P1;HPM_P2
2024/01/16 00:02:24;;;;;;;7.70;6.17;;;;;;;1.29;97.77;99851.63;5022308;28;20203;-76
2024/01/16 00:04:49;;;;;;;5.90;5.30;;;;;;;1.23;97.83;99850.63;5026311;28;20189;-76
2024/01/16 00:07:15;;;;;;;7.53;5.93;;;;;;;1.04;98.49;99855.31;5025934;28;20750;-78
2024/01/16 00:09:40;;;;;;;7.00;5.60;;;;;;;1.01;99.24;99851.00;5026112;28;20188;-77
2024/01/16 00:12:06;;;;;;;7.40;5.83;;;;;;;1.02;99.41;99852.72;5023183;28;20219;-75
2024/01/16 00:14:36;;;;;;;7.77;5.83;;;;;;;1.04;98.82;99848.53;5023033;28;20179;-78
2024/01/16 00:17:01;;;;;;;8.17;5.67;;;;;;;1.02;99.29;99846.75;5024815;28;20624;-76
2024/01/16 00:19:26;;;;;;;7.77;5.83;;;;;;;1.05;98.60;99852.81;5026337;28;20191;-77
2024/01/16 00:21:52;;;;;;;6.47;5.17;;;;;;;1.04;98.62;99853.63;5026094;28;20219;-75
2024/01/16 00:24:17;;;;;;;6.13;5.17;;;;;;;1.17;97.87;99861.53;5023776;28;20211;-78
2024/01/16 00:26:43;;;;;;;6.23;5.63;;;;;;;1.10;98.02;99852.03;5031200;28;20195;-76
2024/01/16 00:29:12;;;;;;;7.27;6.00;;;;;;;1.10;97.86;99865.66;5031573;28;20579;-78
2024/01/16 00:31:38;;;;;;;7.77;5.60;;;;;;;1.02;98.42;99864.59;5022752;28;20252;-76
2024/01/16 00:34:04;;;;;;;7.10;5.33;;;;;;;1.00;98.48;99856.94;5024257;28;20206;-77
2024/01/16 00:36:29;;;;;;;7.10;5.97;;;;;;;1.04;99.17;99863.81;5024257;28;20179;-77
2024/01/16 00:38:55;;;;;;;7.20;5.57;;;;;;;1.09;99.18;99865.59;5025367;28;20195;-77
2024/01/16 00:41:20;;;;;;;7.47;5.70;;;;;;;1.08;99.42;99854.56;5022250;28;20222;-77
2024/01/16 00:43:46;;;;;;;6.60;4.97;;;;;;;1.07;99.61;99860.47;5022980;28;20218;-76
2024/01/16 00:46:11;;;;;;;7.73;5.63;;;;;;;1.05;99.13;99857.03;5013855;28;20277;-77
2024/01/16 00:48:36;;;;;;;5.93;5.33;;;;;;;1.03;99.55;99858.66;5021495;28;20274;-75
2024/01/16 00:51:02;;;;;;;7.00;5.17;;;;;;;1.02;100.00;99860.38;5019354;28;20200;-76
2024/01/16 00:53:27;;;;;;;8.43;5.77;;;;;;;1.02;100.00;99867.13;5034469;28;20183;-78
2024/01/16 00:55:54;;;;;;;5.80;5.13;;;;;;;0.98;99.71;99861.13;5025573;28;20187;-79
2024/01/16 00:58:21;;;;;;;6.97;4.97;;;;;;;1.01;99.17;99852.69;5023982;28;20292;-76
2024/01/16 01:00:46;;;;;;;7.60;5.77;;;;;;;0.98;99.52;99853.47;5024494;28;20222;-76
2024/01/16 01:03:12;;;;;;;6.70;5.33;;;;;;;0.99;99.81;99852.66;5020171;28;20211;-76
2024/01/16 01:05:37;;;;;;;6.03;4.80;;;;;;;1.01;99.86;99855.22;5023820;28;20655;-76
2024/01/16 01:08:03;;;;;;;7.03;5.50;;;;;;;1.02;100.00;99856.94;5023361;28;20191;-77
2024/01/16 01:10:28;;;;;;;6.43;5.47;;;;;;;1.00;99.92;99859.47;5038747;28;20222;-77
2024/01/16 01:12:53;;;;;;;7.93;5.97;;;;;;;0.98;99.74;99865.38;5022142;28;20345;-76
2024/01/16 01:15:20;;;;;;;6.83;5.13;;;;;;;0.98;99.89;99870.47;5019289;28;20237;-77
2024/01/16 01:17:48;;;;;;;6.93;5.80;;;;;;;0.96;100.00;99870.41;5016615;28;20199;-77
2024/01/16 01:20:13;;;;;;;7.37;5.97;;;;;;;0.99;100.00;99861.97;5016853;28;20225;-78
2024/01/16 01:22:38;;;;;;;7.40;5.83;;;;;;;0.93;99.69;99866.94;5028028;28;20819;-76
2024/01/16 01:25:04;;;;;;;8.17;6.03;;;;;;;0.98;99.91;99870.47;5022937;28;20192;-77
2024/01/16 01:27:30;;;;;;;7.07;5.87;;;;;;;0.94;98.85;99872.06;5020750;28;20188;-76
2024/01/16 01:29:55;;;;;;;7.03;5.30;;;;;;;0.94;99.07;99877.16;5011192;28;20261;-77
2024/01/16 01:32:21;;;;;;;7.00;5.63;;;;;;;0.89;99.47;99871.97;5025304;28;20278;-77
2024/01/16 01:34:46;;;;;;;5.87;5.07;;;;;;;0.86;99.65;99876.97;5024964;28;20183;-76
2024/01/16 01:37:12;;;;;;;6.57;5.13;;;;;;;0.85;99.77;99871.84;5024765;28;20284;-77
2024/01/16 01:39:37;;;;;;;6.70;5.27;;;;;;;0.87;99.37;99876.16;5022505;28;20495;-76
2024/01/16 01:42:02;;;;;;;6.50;4.90;;;;;;;0.87;99.04;99878.69;5019131;28;20210;-76
2024/01/16 01:44:28;;;;;;;7.10;5.20;;;;;;;0.90;98.25;99880.47;5021320;28;20198;-76
2024/01/16 01:46:55;;;;;;;7.83;6.07;;;;;;;0.86;98.16;99883.78;5022104;28;20195;-77
2024/01/16 01:49:22;;;;;;;6.30;5.70;;;;;;;0.84;98.29;99882.88;5022422;28;20829;-77
2024/01/16 01:51:48;;;;;;;6.93;5.40;;;;;;;0.85;97.94;99890.53;5024962;28;20202;-77
2024/01/16 01:54:15;;;;;;;6.80;5.33;;;;;;;0.80;98.16;99887.03;5022895;28;20183;-76
2024/01/16 01:56:44;;;;;;;6.80;5.17;;;;;;;0.79;97.55;99884.44;5023620;28;20194;-77
2024/01/16 01:59:09;;;;;;;6.90;5.53;;;;;;;0.74;97.56;99885.19;5025338;28;20281;-77
2024/01/16 02:01:35;;;;;;;6.07;5.20;;;;;;;0.69;98.00;99876.56;5027849;28;20286;-76
2024/01/16 02:04:01;;;;;;;6.20;5.13;;;;;;;0.69;98.12;99876.56;5026561;28;20192;-77
2024/01/16 02:06:28;;;;;;;7.13;5.20;;;;;;;0.65;98.43;99884.13;5029761;28;20195;-77
2024/01/16 02:08:53;;;;;;;5.80;5.20;;;;;;;0.58;98.31;99881.41;5027241;28;20766;-78
2024/01/16 02:11:19;;;;;;;6.63;5.43;;;;;;;0.57;98.78;99879.66;5027420;28;20238;-77
2024/01/16 02:13:44;;;;;;;6.30;5.20;;;;;;;0.54;99.34;99882.13;5028200;28;20192;-77
2024/01/16 02:16:23;;;;;;;7.40;5.10;;;;;;;0.50;99.30;99877.81;5026362;28;20617;-76
2024/01/16 02:18:49;;;;;;;7.30;5.27;;;;;;;0.53;98.65;99874.47;5026965;28;20225;-77
2024/01/16 02:21:18;;;;;;;7.97;5.77;;;;;;;0.49;99.24;99881.19;5028421;28;20231;-76
2024/01/16 02:23:44;;;;;;;6.53;4.97;;;;;;;0.46;99.40;99881.09;5027399;28;20204;-76
2024/01/16 02:26:09;;;;;;;7.17;5.67;;;;;;;0.45;99.50;99880.22;5023135;28;20185;-76
2024/01/16 02:28:35;;;;;;;6.90;5.43;;;;;;;0.47;99.29;99879.41;5025999;28;20178;-76
2024/01/16 02:31:00;;;;;;;8.40;5.87;;;;;;;0.48;98.55;99882.00;5027424;28;20224;-77
2024/01/16 02:33:26;;;;;;;9.33;5.47;;;;;;;0.43;98.67;99881.00;5026093;28;20249;-76
2024/01/16 02:35:51;;;;;;;7.43;5.80;;;;;;;0.41;98.89;99875.00;5031996;28;20201;-77
2024/01/16 02:38:16;;;;;;;6.20;5.17;;;;;;;0.37;98.66;99875.78;5028215;28;20191;-77
2024/01/16 02:40:42;;;;;;;8.40;5.87;;;;;;;0.34;98.12;99874.00;5034602;28;21006;-76
2024/01/16 02:43:07;;;;;;;6.00;5.40;;;;;;;0.30;98.56;99877.31;5024069;28;20268;-76
2024/01/16 02:45:33;;;;;;;7.07;5.43;;;;;;;0.23;98.70;99877.94;5027272;28;20262;-76
2024/01/16 02:47:58;;;;;;;5.47;4.97;;;;;;;0.17;98.93;99883.75;5026233;28;20233;-78
2024/01/16 02:50:24;;;;;;;7.60;5.13;;;;;;;0.11;99.19;99889.53;5025774;28;20269;-76
2024/01/16 02:52:49;;;;;;;6.50;5.23;;;;;;;0.06;99.29;99887.69;5022782;28;20182;-79
2024/01/16 02:55:14;;;;;;;6.13;5.23;;;;;;;0.04;99.59;99896.97;5024147;28;20197;-78
2024/01/16 02:57:40;;;;;;;6.40;5.13;;;;;;;0.01;99.81;99894.31;5026503;28;20270;-76
2024/01/16 03:00:07;;;;;;;7.37;5.40;;;;;;;-0.01;99.53;99896.84;5025761;28;20186;-76
2024/01/16 03:02:33;;;;;;;7.70;5.70;;;;;;;-0.03;99.48;99901.03;5028341;28;20694;-77
2024/01/16 03:04:58;;;;;;;7.20;5.60;;;;;;;-0.06;99.98;99900.94;5026752;28;20292;-76
2024/01/16 03:07:24;;;;;;;6.43;5.40;;;;;;;-0.11;99.48;99903.34;5027081;28;20558;-77
2024/01/16 03:09:49;;;;;;;7.03;5.60;;;;;;;-0.16;99.53;99899.81;5018724;28;20194;-77
2024/01/16 03:12:15;;;;;;;8.13;5.70;;;;;;;-0.20;99.26;99908.16;5025498;28;20240;-76
2024/01/16 03:14:40;;;;;;;8.00;5.87;;;;;;;-0.25;99.16;99913.13;5027931;28;20194;-76
2024/01/16 03:17:06;;;;;;;6.27;5.03;;;;;;;-0.32;99.59;99909.53;5027395;28;20267;-76
2024/01/16 03:19:32;;;;;;;6.53;5.10;;;;;;;-0.37;99.74;99915.31;5022073;28;20194;-77
2024/01/16 03:21:57;;;;;;;6.67;5.20;;;;;;;-0.44;99.86;99915.94;5028545;28;20216;-77
2024/01/16 03:24:23;;;;;;;7.57;5.67;;;;;;;-0.48;100.00;99908.25;5026579;28;20203;-76
2024/01/16 03:26:48;;;;;;;7.20;5.40;;;;;;;-0.55;100.00;99910.56;5027688;28;20185;-78
2024/01/16 03:29:13;;;;;;;6.53;5.33;;;;;;;-0.64;100.00;99914.53;5029888;28;20264;-77
2024/01/16 03:31:39;;;;;;;6.40;5.47;;;;;;;-0.72;100.00;99910.91;5026903;28;20237;-77
2024/01/16 03:34:04;;;;;;;6.53;5.17;;;;;;;-0.77;100.00;99913.31;5028739;28;20207;-77
2024/01/16 03:36:29;;;;;;;6.37;5.30;;;;;;;-0.80;100.00;99917.41;5027428;28;20319;-76
2024/01/16 03:38:55;;;;;;;6.80;5.47;;;;;;;-0.87;100.00;99913.81;5034123;28;20219;-77
2024/01/16 03:41:20;;;;;;;6.63;5.40;;;;;;;-0.92;100.00;99907.75;5024729;28;20304;-77
2024/01/16 03:43:46;;;;;;;6.00;4.93;;;;;;;-0.96;100.00;99903.38;5030553;28;20308;-78
2024/01/16 03:46:11;;;;;;;5.57;4.63;;;;;;;-1.00;100.00;99907.50;5032027;28;20196;-77
2024/01/16 03:48:37;;;;;;;5.63;4.67;;;;;;;-1.11;100.00;99909.69;5021470;28;20304;-77
2024/01/16 03:51:02;;;;;;;5.57;4.77;;;;;;;-1.17;100.00;99917.09;5025588;28;20210;-78
2024/01/16 03:53:28;;;;;;;7.47;4.80;;;;;;;-1.20;100.00;99913.59;5030122;28;20192;-77
2024/01/16 03:55:53;;;;;;;6.13;5.30;;;;;;;-1.24;100.00;99910.97;5020017;28;20254;-78
2024/01/16 03:58:19;;;;;;;6.77;5.33;;;;;;;-1.27;100.00;99907.47;5026682;28;20831;-76
2024/01/16 04:00:44;;;;;;;7.70;5.47;;;;;;;-1.27;100.00;99910.84;5024583;28;20205;-76
2024/01/16 04:03:11;;;;;;;6.50;5.10;;;;;;;-1.29;100.00;99909.09;5021956;28;20213;-77
2024/01/16 04:05:36;;;;;;;8.13;5.20;;;;;;;-1.33;100.00;99899.63;5023705;28;20640;-77
2024/01/16 04:08:02;;;;;;;5.77;4.67;;;;;;;-1.40;100.00;99898.56;5020888;28;20195;-76
2024/01/16 04:10:27;;;;;;;7.60;5.70;;;;;;;-1.42;100.00;99903.59;5022331;28;20208;-76
2024/01/16 04:12:52;;;;;;;7.70;5.70;;;;;;;-1.47;100.00;99899.19;5025010;28;20598;-76
2024/01/16 04:15:18;;;;;;;6.77;5.63;;;;;;;-1.50;100.00;99902.47;5023967;28;20189;-76
2024/01/16 04:17:43;;;;;;;7.17;5.33;;;;;;;-1.50;100.00;99896.56;5024091;28;20682;-77
2024/01/16 04:20:09;;;;;;;8.13;5.17;;;;;;;-1.57;100.00;99895.47;5020720;28;20389;-76
2024/01/16 04:22:35;;;;;;;6.93;5.20;;;;;;;-1.57;100.00;99893.78;5019974;28;20196;-76
2024/01/16 04:25:00;;;;;;;6.70;5.60;;;;;;;-1.59;100.00;99892.03;5025269;28;20191;-77
2024/01/16 04:27:25;;;;;;;7.27;5.60;;;;;;;-1.59;100.00;99897.09;5026654;28;20200;-75
2024/01/16 04:29:51;;;;;;;8.33;5.60;;;;;;;-1.61;100.00;99886.03;5025723;28;20199;-76
2024/01/16 04:32:16;;;;;;;8.30;5.70;;;;;;;-1.63;100.00;99887.66;5024407;28;20209;-79
2024/01/16 04:34:42;;;;;;;7.63;5.63;;;;;;;-1.64;100.00;99881.72;5024278;28;20185;-76
2024/01/16 04:37:07;;;;;;;7.20;6.13;;;;;;;-1.64;100.00;99883.38;5026630;28;20631;-77
2024/01/16 04:39:32;;;;;;;8.30;6.30;;;;;;;-1.64;100.00;99885.91;5024241;28;20217;-75
2024/01/16 04:41:58;;;;;;;9.23;6.17;;;;;;;-1.69;100.00;99885.78;5020075;28;20658;-76
2024/01/16 04:44:23;;;;;;;8.30;5.93;;;;;;;-1.69;100.00;99889.19;5018407;28;20269;-76
2024/01/16 04:46:49;;;;;;;7.73;5.73;;;;;;;-1.71;100.00;99882.31;5022787;28;20268;-78
2024/01/16 04:49:14;;;;;;;8.73;6.10;;;;;;;-1.74;100.00;99879.69;5020262;28;20576;-75
2024/01/16 04:51:39;;;;;;;8.83;6.37;;;;;;;-1.74;100.00;99872.94;5021701;28;20226;-76
2024/01/16 04:54:05;;;;;;;7.53;5.87;;;;;;;-1.76;100.00;99878.78;5021234;28;20711;-76
2024/01/16 04:56:30;;;;;;;7.20;5.87;;;;;;;-1.78;100.00;99886.31;5025468;28;20188;-75
2024/01/16 04:58:55;;;;;;;8.20;5.93;;;;;;;-1.81;100.00;99873.50;5027179;28;20184;-77
2024/01/16 05:01:20;;;;;;;8.23;6.23;;;;;;;-1.84;100.00;99878.50;5023725;28;20313;-75
2024/01/16 05:03:46;;;;;;;7.27;5.23;;;;;;;-1.84;100.00;99881.03;5025825;28;20207;-76
2024/01/16 05:06:16;;;;;;;8.33;5.57;;;;;;;-1.87;100.00;99881.78;5025140;28;20194;-77
2024/01/16 05:08:42;;;;;;;6.63;5.60;;;;;;;-1.88;100.00;99880.06;5022750;28;20203;-76
2024/01/16 05:11:08;;;;;;;7.23;5.47;;;;;;;-1.89;100.00;99872.41;5025049;28;20696;-77
2024/01/16 05:13:33;;;;;;;6.87;5.50;;;;;;;-1.90;100.00;99865.59;5023899;28;20681;-78
2024/01/16 05:15:59;;;;;;;6.33;5.40;;;;;;;-1.91;100.00;99851.19;5020699;28;20192;-76
2024/01/16 05:18:24;;;;;;;7.07;5.13;;;;;;;-1.98;100.00;99845.06;5027179;28;20567;-76
2024/01/16 05:20:49;;;;;;;7.13;5.50;;;;;;;-2.02;100.00;99844.09;5017376;28;20623;-76
2024/01/16 05:23:15;;;;;;;6.20;5.00;;;;;;;-2.04;100.00;99844.84;5025034;28;20247;-77
2024/01/16 05:25:40;;;;;;;6.20;5.33;;;;;;;-1.98;100.00;99837.44;5024623;28;20196;-76
2024/01/16 05:28:05;;;;;;;7.23;5.30;;;;;;;-1.95;100.00;99839.22;5024711;28;20207;-76
2024/01/16 05:30:31;;;;;;;6.97;5.73;;;;;;;-1.95;100.00;99835.00;5035959;28;20205;-76
2024/01/16 05:33:00;;;;;;;7.27;5.40;;;;;;;-1.90;100.00;99832.63;5023542;28;20184;-75
2024/01/16 05:35:26;;;;;;;6.47;4.63;;;;;;;-1.88;100.00;99831.00;5026585;28;20271;-77
2024/01/16 05:37:51;;;;;;;6.27;5.10;;;;;;;-1.86;100.00;99819.25;5023773;28;20346;-77
2024/01/16 05:40:17;;;;;;;6.07;4.83;;;;;;;-1.87;100.00;99817.53;5029385;28;20190;-77
2024/01/16 05:42:42;;;;;;;6.97;5.17;;;;;;;-1.88;100.00;99811.56;5022402;28;20223;-75
2024/01/16 05:45:08;;;;;;;5.97;4.80;;;;;;;-1.86;100.00;99811.63;5031557;28;20205;-77
2024/01/16 05:47:33;;;;;;;9.80;7.83;;;;;;;-1.85;100.00;99813.38;5026660;28;20183;-78
2024/01/16 05:49:59;;;;;;;10.57;8.03;;;;;;;-1.89;100.00;99817.44;5024498;28;20185;-76
2024/01/16 05:52:24;;;;;;;8.80;6.70;;;;;;;-1.90;100.00;99828.44;5026079;28;20177;-76
2024/01/16 05:54:50;;;;;;;8.07;6.50;;;;;;;-1.87;100.00;99825.13;5029680;28;20896;-76
2024/01/16 05:57:15;;;;;;;7.67;6.73;;;;;;;-1.85;100.00;99824.38;5026591;28;20667;-77
2024/01/16 05:59:41;;;;;;;9.10;6.73;;;;;;;-1.85;100.00;99819.28;5028014;28;20188;-76
2024/01/16 06:02:06;;;;;;;7.47;6.70;;;;;;;-1.85;100.00;99821.81;5026305;28;20571;-76
2024/01/16 06:04:32;;;;;;;7.77;6.40;;;;;;;-1.83;100.00;99829.50;5028463;28;20188;-77
2024/01/16 06:06:57;;;;;;;7.37;5.60;;;;;;;-1.80;100.00;99831.28;5025716;28;20226;-75
2024/01/16 06:09:22;;;;;;;5.80;5.17;;;;;;;-1.77;100.00;99822.09;5024280;28;20188;-77
2024/01/16 06:11:47;;;;;;;6.37;5.27;;;;;;;-1.73;100.00;99820.50;5026846;28;20290;-77
2024/01/16 06:14:13;;;;;;;7.33;5.60;;;;;;;-1.70;100.00;99824.03;5028418;28;20292;-78
2024/01/16 06:16:38;;;;;;;5.53;4.93;;;;;;;-1.67;100.00;99828.34;5028405;28;20652;-77
2024/01/16 06:19:04;;;;;;;6.27;5.27;;;;;;;-1.64;100.00;99830.09;5029890;28;20194;-76
2024/01/16 06:21:30;;;;;;;7.93;5.60;;;;;;;-1.56;100.00;99833.75;5022615;28;20211;-76
2024/01/16 06:23:55;;;;;;;5.67;4.77;;;;;;;-1.56;100.00;99836.31;5027386;28;20203;-77
2024/01/16 06:26:20;;;;;;;6.63;5.30;;;;;;;-1.54;100.00;99839.75;5026864;28;20238;-76
2024/01/16 06:28:46;;;;;;;5.20;4.70;;;;;;;-1.48;100.00;99836.56;5028715;28;20220;-76
2024/01/16 06:31:11;;;;;;;6.13;5.10;;;;;;;-1.43;100.00;99835.00;5023761;28;20205;-76
2024/01/16 06:33:37;;;;;;;6.17;5.10;;;;;;;-1.42;100.00;99830.00;5027495;28;20770;-77
2024/01/16 06:36:05;;;;;;;5.57;4.80;;;;;;;-1.39;100.00;99836.84;5029139;28;20189;-77
2024/01/16 06:38:31;;;;;;;7.73;5.90;;;;;;;-1.41;100.00;99833.38;5028970;28;20210;-77
2024/01/16 06:40:57;;;;;;;7.40;5.83;;;;;;;-1.40;100.00;99828.38;5031371;28;20209;-77
2024/01/16 06:43:23;;;;;;;9.40;6.70;;;;;;;-1.38;100.00;99824.22;5028034;28;20216;-77
2024/01/16 06:45:48;;;;;;;11.33;7.93;;;;;;;-1.34;100.00;99824.28;5022172;28;20209;-77
2024/01/16 06:48:13;;;;;;;9.90;7.27;;;;;;;-1.32;100.00;99828.63;5023144;28;20578;-77
2024/01/16 06:50:39;;;;;;;11.80;8.10;;;;;;;-1.31;100.00;99822.72;5022389;28;20702;-77
2024/01/16 06:53:04;;;;;;;9.80;7.33;;;;;;;-1.29;100.00;99822.78;5026964;28;20197;-77
2024/01/16 06:55:29;;;;;;;9.23;7.10;;;;;;;-1.28;100.00;99817.72;5022874;28;20189;-76
2024/01/16 06:57:55;;;;;;;7.93;5.70;;;;;;;-1.27;100.00;99819.44;5042814;28;20195;-77
2024/01/16 07:00:22;;;;;;;6.70;5.93;;;;;;;-1.28;100.00;99805.03;5027119;28;20900;-76
2024/01/16 07:02:48;;;;;;;8.60;6.50;;;;;;;-1.28;100.00;99811.81;5020183;28;20564;-77
2024/01/16 07:05:13;;;;;;;7.77;5.70;;;;;;;-1.29;100.00;99813.50;5026512;28;20193;-76
2024/01/16 07:07:39;;;;;;;7.73;6.10;;;;;;;-1.30;100.00;99811.75;5021688;28;20242;-77
2024/01/16 07:10:08;;;;;;;7.13;5.63;;;;;;;-1.29;100.00;99803.34;5022775;28;20203;-77
2024/01/16 07:12:33;;;;;;;8.40;6.63;;;;;;;-1.28;100.00;99807.56;5023948;28;20189;-76
2024/01/16 07:14:58;;;;;;;8.20;7.33;;;;;;;-1.26;100.00;99811.03;5023817;28;20747;-76
2024/01/16 07:17:24;;;;;;;10.03;8.27;;;;;;;-1.25;100.00;99800.06;5024812;28;20302;-77
2024/01/16 07:19:49;;;;;;;12.17;10.17;;;;;;;-1.23;100.00;99807.75;5036328;28;20192;-76
2024/01/16 07:22:15;;;;;;;11.93;8.63;;;;;;;-1.22;100.00;99801.84;5027562;28;20224;-76
2024/01/16 07:24:41;;;;;;;8.47;7.20;;;;;;;-1.21;100.00;99811.16;5040892;28;20237;-77
2024/01/16 07:27:06;;;;;;;7.13;6.13;;;;;;;-1.21;100.00;99815.38;5026701;28;20238;-76
2024/01/16 07:29:31;;;;;;;9.87;6.40;;;;;;;-1.20;100.00;99806.97;5028002;28;20638;-76
2024/01/16 07:31:57;;;;;;;6.20;4.83;;;;;;;-1.18;100.00;99807.88;5027636;28;20961;-77
2024/01/16 07:34:22;;;;;;;6.13;5.13;;;;;;;-1.16;100.00;99802.03;5030349;28;20270;-78
2024/01/16 07:36:48;;;;;;;5.30;4.60;;;;;;;-1.12;100.00;99802.97;5027828;28;20672;-77
2024/01/16 07:39:14;;;;;;;6.57;5.40;;;;;;;-1.08;100.00;99809.88;5026703;28;20193;-76
2024/01/16 07:41:39;;;;;;;6.43;5.43;;;;;;;-1.06;100.00;99800.63;5023502;28;20224;-76
2024/01/16 07:44:05;;;;;;;7.53;5.03;;;;;;;-1.01;100.00;99803.28;5027167;28;20237;-77
2024/01/16 07:46:30;;;;;;;5.63;5.13;;;;;;;-0.99;100.00;99802.56;5027733;28;20177;-75
2024/01/16 07:48:55;;;;;;;5.70;5.10;;;;;;;-0.93;100.00;99809.50;5022829;28;20191;-77
2024/01/16 07:51:21;;;;;;;5.80;4.23;;;;;;;-0.87;100.00;99812.19;5027026;28;20618;-76
2024/01/16 07:53:47;;;;;;;6.47;4.87;;;;;;;-0.81;100.00;99814.03;5025842;28;20196;-76
2024/01/16 07:56:12;;;;;;;5.20;4.63;;;;;;;-0.75;100.00;99811.69;5028052;28;20275;-77
2024/01/16 07:58:38;;;;;;;5.40;4.57;;;;;;;-0.68;100.00;99816.13;5028860;28;20272;-77
2024/01/16 08:01:03;;;;;;;5.80;4.60;;;;;;;-0.60;100.00;99818.03;5026171;28;20219;-77
2024/01/16 08:03:28;;;;;;;5.80;4.73;;;;;;;-0.55;100.00;99824.13;5022029;28;20596;-77
2024/01/16 08:05:54;;;;;;;11.10;5.20;;;;;;;-0.50;100.00;99817.47;5035642;28;20248;-76
2024/01/16 08:08:19;;;;;;;7.30;5.90;;;;;;;-0.44;100.00;99814.25;5025760;28;20190;-77
2024/01/16 08:10:45;;;;;;;8.47;5.40;;;;;;;-0.39;100.00;99823.75;5044391;28;20218;-76
2024/01/16 08:13:10;;;;;;;7.07;5.50;;;;;;;-0.34;100.00;99828.94;5019375;28;20191;-77
2024/01/16 08:15:36;;;;;;;7.03;5.33;;;;;;;-0.28;100.00;99835.88;5017694;28;20203;-76
2024/01/16 08:18:02;;;;;;;6.70;5.67;;;;;;;-0.23;100.00;99835.19;5026443;28;20192;-76
2024/01/16 08:20:27;;;;;;;5.77;4.40;;;;;;;-0.17;100.00;99834.50;5015045;28;21035;-76
2024/01/16 08:22:53;;;;;;;5.60;5.00;;;;;;;-0.12;100.00;99832.94;5016008;28;20226;-74
2024/01/16 08:25:18;;;;;;;6.00;5.20;;;;;;;-0.07;100.00;99827.97;5018152;28;20597;-76
2024/01/16 08:27:44;;;;;;;6.37;5.27;;;;;;;-0.03;100.00;99832.34;5021550;28;20179;-77
2024/01/16 08:30:11;;;;;;;6.57;5.77;;;;;;;0.01;100.00;99828.19;5023223;28;20197;-76
2024/01/16 08:32:36;;;;;;;7.83;6.33;;;;;;;0.05;100.00;99838.47;5013728;28;20659;-77
2024/01/16 08:35:02;;;;;;;12.23;10.33;;;;;;;0.09;100.00;99832.66;5018743;28;20191;-76
2024/01/16 08:37:27;;;;;;;24.87;18.77;;;;;;;0.14;100.00;99838.72;5009371;28;20636;-78
2024/01/16 08:39:52;;;;;;;19.63;13.97;;;;;;;0.19;100.00;99840.50;5030142;28;20209;-77
2024/01/16 08:42:18;;;;;;;17.53;12.80;;;;;;;0.21;100.00;99837.22;5021913;28;20284;-76
2024/01/16 08:44:43;;;;;;;36.23;23.40;;;;;;;0.25;100.00;99838.97;5022039;28;20849;-77
2024/01/16 08:47:09;;;;;;;9.30;7.60;;;;;;;0.30;100.00;99847.59;5024062;28;20698;-77
2024/01/16 08:49:35;;;;;;;7.10;5.43;;;;;;;0.30;100.00;99847.59;5013058;28;20646;-76
2024/01/16 08:52:01;;;;;;;7.17;5.57;;;;;;;0.32;100.00;99850.19;5013274;28;20217;-76
2024/01/16 08:54:26;;;;;;;6.70;5.40;;;;;;;0.32;100.00;99850.19;5033316;28;20225;-77
2024/01/16 08:56:52;;;;;;;7.80;5.70;;;;;;;0.37;100.00;99845.22;5014596;28;20199;-76
2024/01/16 08:59:17;;;;;;;7.30;5.53;;;;;;;0.45;100.00;99846.28;5007496;28;20278;-76
2024/01/16 09:01:43;;;;;;;5.80;5.20;;;;;;;0.53;100.00;99854.09;5041943;28;20224;-76
2024/01/16 09:04:08;;;;;;;7.33;6.30;;;;;;;0.64;100.00;99856.91;5024628;28;20191;-77
2024/01/16 09:06:34;;;;;;;7.90;5.60;;;;;;;0.70;99.91;99852.84;5021548;28;20202;-77
2024/01/16 09:08:59;;;;;;;7.30;5.33;;;;;;;0.75;99.26;99856.38;5018410;28;20202;-77
2024/01/16 09:11:25;;;;;;;6.50;5.40;;;;;;;0.80;99.42;99855.59;5024425;28;20211;-76
2024/01/16 09:13:51;;;;;;;5.60;5.00;;;;;;;0.92;98.94;99845.69;5024944;28;20338;-77
2024/01/16 09:16:16;;;;;;;6.40;5.07;;;;;;;1.04;98.37;99847.66;5019735;28;20593;-76
2024/01/16 09:18:42;;;;;;;6.77;6.03;;;;;;;1.15;97.88;99850.44;5022567;28;20196;-76
2024/01/16 09:21:07;;;;;;;7.17;5.60;;;;;;;1.27;97.10;99849.88;5025157;28;20222;-76
2024/01/16 09:23:32;;;;;;;6.83;4.77;;;;;;;1.37;97.00;99847.53;5018416;28;20767;-76
2024/01/16 09:25:58;;;;;;;6.13;5.00;;;;;;;1.49;96.33;99848.63;5023361;28;20201;-78
2024/01/16 09:28:24;;;;;;;6.77;5.43;;;;;;;1.59;95.72;99848.00;5024486;28;20286;-77
2024/01/16 09:30:49;;;;;;;5.60;4.40;;;;;;;1.66;95.49;99836.22;5024529;28;20211;-77
2024/01/16 09:33:16;;;;;;;6.23;5.00;;;;;;;1.77;95.40;99846.63;5024746;28;20188;-77
2024/01/16 09:35:42;;;;;;;6.63;5.77;;;;;;;1.87;94.92;99856.19;5022998;28;20222;-76
2024/01/16 09:38:08;;;;;;;7.57;5.70;;;;;;;1.95;94.34;99854.66;5026150;28;21043;-77
2024/01/16 09:40:35;;;;;;;6.47;5.23;;;;;;;2.06;93.99;99859.94;5024549;28;20266;-77
2024/01/16 09:43:01;;;;;;;5.87;5.17;;;;;;;2.15;93.78;99851.59;5024426;28;20204;-77
2024/01/16 09:45:27;;;;;;;6.70;5.63;;;;;;;2.25;93.33;99858.63;5023678;28;20191;-77
2024/01/16 09:47:53;;;;;;;6.70;5.67;;;;;;;2.36;92.87;99856.22;5025550;28;20229;-76
2024/01/16 09:50:19;;;;;;;6.90;5.13;;;;;;;2.48;92.31;99864.94;5016964;28;20751;-77
2024/01/16 09:52:48;;;;;;;6.53;5.83;;;;;;;2.56;91.79;99864.25;5016519;28;20187;-77
2024/01/16 09:55:15;;;;;;;5.67;4.87;;;;;;;2.64;91.70;99866.94;5017907;28;20187;-77
2024/01/16 09:57:41;;;;;;;5.63;5.00;;;;;;;2.71;91.18;99867.91;5017495;28;20195;-76
2024/01/16 10:00:11;;;;;;;6.33;4.93;;;;;;;2.76;90.74;99866.25;5022685;28;20272;-76
2024/01/16 10:02:41;;;;;;;7.37;5.47;;;;;;;2.85;90.43;99858.75;5025681;28;20306;-77
2024/01/16 10:05:11;;;;;;;6.77;5.80;;;;;;;2.90;90.17;99851.16;5020804;28;20251;-76
2024/01/16 10:07:41;;;;;;;6.67;5.60;;;;;;;2.93;89.34;99845.22;5035884;28;20219;-76
2024/01/16 10:10:10;;;;;;;5.37;4.87;;;;;;;2.96;88.97;99841.00;5019257;28;20191;-77
2024/01/16 10:12:37;;;;;;;8.13;6.07;;;;;;;2.97;88.67;99835.03;5020373;28;20218;-77
2024/01/16 10:15:05;;;;;;;6.77;5.57;;;;;;;2.98;88.54;99833.38;5021252;28;20190;-77
2024/01/16 10:17:37;;;;;;;7.80;5.20;;;;;;;2.95;88.44;99828.22;5023768;28;20257;-76
2024/01/16 10:20:04;;;;;;;5.80;5.20;;;;;;;2.91;87.53;99827.31;5027873;28;20203;-77
2024/01/16 10:22:29;;;;;;;6.77;5.60;;;;;;;2.85;87.62;99822.97;5029860;28;20265;-78
2024/01/16 10:25:05;;;;;;;8.80;6.10;;;;;;;2.82;87.55;99824.59;5025629;28;20199;-76
2024/01/16 10:27:31;;;;;;;6.03;5.37;;;;;;;2.82;87.64;99817.81;5028264;28;20183;-76
2024/01/16 10:29:57;;;;;;;7.67;5.50;;;;;;;2.82;87.85;99810.13;5026029;28;20213;-78
2024/01/16 10:32:43;;;;;;;5.70;5.10;;;;;;;2.82;87.53;99805.03;5025678;28;20974;-76
2024/01/16 10:35:11;;;;;;;6.60;5.13;;;;;;;2.84;87.44;99808.47;5026978;28;20211;-76
2024/01/16 10:37:47;;;;;;;9.63;5.63;;;;;;;2.85;87.29;99801.66;5025119;28;20635;-76
2024/01/16 10:40:26;;;;;;;8.27;5.37;;;;;;;2.83;86.58;99801.63;5025454;28;20187;-77
2024/01/16 10:43:03;;;;;;;7.77;5.87;;;;;;;2.77;86.80;99798.13;5025658;28;20211;-77
2024/01/16 10:45:29;;;;;;;6.37;5.20;;;;;;;2.73;86.61;99799.75;5020744;28;20199;-76
2024/01/16 10:48:08;;;;;;;5.83;5.23;;;;;;;2.66;86.82;99796.25;5026464;28;20619;-77
2024/01/16 10:50:36;;;;;;;5.83;4.97;;;;;;;2.56;87.32;99790.16;5027904;28;20303;-77
2024/01/16 10:53:07;;;;;;;6.20;4.53;;;;;;;2.49;87.24;99798.56;5018146;28;20195;-76
2024/01/16 10:56:02;;;;;;;5.10;4.43;;;;;;;2.42;87.00;99794.19;5020854;28;20287;-77
2024/01/16 10:58:31;;;;;;;5.03;4.33;;;;;;;2.36;86.86;99794.94;5025123;28;20231;-76
2024/01/16 11:01:01;;;;;;;4.23;3.83;;;;;;;2.36;86.91;99791.53;5038853;28;20215;-76
2024/01/16 11:03:37;;;;;;;5.73;4.63;;;;;;;2.35;86.89;99784.72;5030507;28;20267;-77
2024/01/16 11:06:06;;;;;;;6.47;5.03;;;;;;;2.38;86.76;99782.22;5035878;28;20998;-77
2024/01/16 11:08:33;;;;;;;5.73;5.00;;;;;;;2.43;86.70;99776.34;5031383;28;20310;-77
2024/01/16 11:11:00;;;;;;;5.50;4.90;;;;;;;2.51;86.53;99775.56;5028798;28;20702;-77
2024/01/16 11:13:26;;;;;;;5.83;5.10;;;;;;;2.61;86.30;99774.91;5025976;28;20782;-78
2024/01/16 11:15:52;;;;;;;5.77;5.10;;;;;;;2.69;85.95;99775.03;5026587;28;20206;-77
2024/01/16 11:18:18;;;;;;;6.90;5.33;;;;;;;2.76;85.31;99769.16;5021786;28;21171;-77
2024/01/16 11:20:44;;;;;;;5.80;4.93;;;;;;;2.81;84.76;99759.88;5026743;28;20203;-76
2024/01/16 11:23:12;;;;;;;6.83;4.87;;;;;;;2.87;84.39;99765.03;5021991;28;20195;-77
2024/01/16 11:25:38;;;;;;;5.13;4.63;;;;;;;2.92;84.50;99754.91;5024491;28;20718;-77
2024/01/16 11:28:11;;;;;;;6.03;4.40;;;;;;;2.98;85.74;99747.31;5022267;28;20187;-77
2024/01/16 11:30:37;;;;;;;6.60;5.13;;;;;;;3.05;86.29;99749.13;5016463;28;20297;-77